sensor_id;sensor_type;location;lat;lon;timestamp;P1;durP1;ratioP1;P2;durP2;ratioP2
38637;SDS011;24401;53.034;-3.030;2023-12-14T01:57:44;2.20;;;0.95;;
38637;SDS011;24401;53.034;-3.030;2023-12-14T02:00:29;2.30;;;1.50;;
38637;SDS011;24401;53.034;-3.030;2023-12-14T02:03:04;4.50;;;1.10;;
38637;SDS011;24401;53.034;-3.030;2023-12-14T02:05:34;1.20;;;0.83;;
38637;SDS011;24401;53.034;-3.030;2023-12-14T02:08:05;5.63;;;1.23;;
38637;SDS011;24401;53.034;-3.030;2023-12-14T02:10:35;2.70;;;1.03;;
38637;SDS011;24401;53.034;-3.030;2023-12-14T02:13:05;3.57;;;1.13;;
38637;SDS011;24401;53.034;-3.030;2023-12-14T02:15:35;2.40;;;1.23;;
38637;SDS011;24401;53.034;-3.030;2023-12-14T02:18:06;0.87;;;0.80;;
38637;SDS011;24401;53.034;-3.030;2023-12-14T02:20:36;1.27;;;0.87;;
38637;SDS011;24401;53.034;-3.030;2023-12-14T02:23:06;2.13;;;0.77;;
38637;SDS011;24401;53.034;-3.030;2023-12-14T02:25:36;0.50;;;0.50;;
38637;SDS011;24401;53.034;-3.030;2023-12-14T02:28:07;1.90;;;0.67;;
38637;SDS011;24401;53.034;-3.030;2023-12-14T02:30:37;2.27;;;0.93;;
38637;SDS011;24401;53.034;-3.030;2023-12-14T02:33:07;1.27;;;0.90;;
38637;SDS011;24401;53.034;-3.030;2023-12-14T02:35:37;6.83;;;1.30;;
38637;SDS011;24401;53.034;-3.030;2023-12-14T02:38:07;3.00;;;1.50;;
38637;SDS011;24401;53.034;-3.030;2023-12-14T02:40:38;1.97;;;1.40;;
38637;SDS011;24401;53.034;-3.030;2023-12-14T02:43:08;1.97;;;1.60;;
38637;SDS011;24401;53.034;-3.030;2023-12-14T02:45:38;1.80;;;1.53;;
38637;SDS011;24401;53.034;-3.030;2023-12-14T02:48:08;9.53;;;1.43;;
38637;SDS011;24401;53.034;-3.030;2023-12-14T02:50:39;1.80;;;1.20;;
38637;SDS011;24401;53.034;-3.030;2023-12-14T02:53:09;5.17;;;1.60;;
38637;SDS011;24401;53.034;-3.030;2023-12-14T02:55:39;5.43;;;1.50;;
38637;SDS011;24401;53.034;-3.030;2023-12-14T02:58:09;1.90;;;1.10;;
38637;SDS011;24401;53.034;-3.030;2023-12-14T03:00:39;1.63;;;1.10;;
38637;SDS011;24401;53.034;-3.030;2023-12-14T03:03:10;2.93;;;0.90;;
38637;SDS011;24401;53.034;-3.030;2023-12-14T03:05:40;1.90;;;1.53;;
38637;SDS011;24401;53.034;-3.030;2023-12-14T03:08:10;2.67;;;1.03;;
38637;SDS011;24401;53.034;-3.030;2023-12-14T03:10:40;2.53;;;1.20;;
38637;SDS011;24401;53.034;-3.030;2023-12-14T03:13:11;2.67;;;1.40;;
38637;SDS011;24401;53.034;-3.030;2023-12-14T03:15:42;2.07;;;1.33;;
38637;SDS011;24401;53.034;-3.030;2023-12-14T03:18:12;3.88;;;1.27;;
38637;SDS011;24401;53.034;-3.030;2023-12-14T03:20:43;3.10;;;1.30;;
38637;SDS011;24401;53.034;-3.030;2023-12-14T03:23:13;3.37;;;0.90;;
38637;SDS011;24401;53.034;-3.030;2023-12-14T03:25:43;3.23;;;1.10;;
38637;SDS011;24401;53.034;-3.030;2023-12-14T03:28:14;1.87;;;0.90;;
38637;SDS011;24401;53.034;-3.030;2023-12-14T03:30:44;3.70;;;0.90;;
38637;SDS011;24401;53.034;-3.030;2023-12-14T03:33:14;3.27;;;0.90;;
38637;SDS011;24401;53.034;-3.030;2023-12-14T03:35:44;1.30;;;1.00;;
38637;SDS011;24401;53.034;-3.030;2023-12-14T03:38:16;3.85;;;1.00;;
38637;SDS011;24401;53.034;-3.030;2023-12-14T03:40:46;1.50;;;1.37;;
38637;SDS011;24401;53.034;-3.030;2023-12-14T03:43:16;2.87;;;0.90;;
38637;SDS011;24401;53.034;-3.030;2023-12-14T03:45:47;1.80;;;1.27;;
38637;SDS011;24401;53.034;-3.030;2023-12-14T03:48:17;1.00;;;0.90;;
38637;SDS011;24401;53.034;-3.030;2023-12-14T03:50:47;1.53;;;1.00;;
38637;SDS011;24401;53.034;-3.030;2023-12-14T03:53:17;0.93;;;0.93;;
38637;SDS011;24401;53.034;-3.030;2023-12-14T03:55:47;2.80;;;1.10;;
38637;SDS011;24401;53.034;-3.030;2023-12-14T03:58:18;2.50;;;1.00;;
38637;SDS011;24401;53.034;-3.030;2023-12-14T04:00:48;2.07;;;1.07;;
38637;SDS011;24401;53.034;-3.030;2023-12-14T04:03:18;1.13;;;1.07;;
38637;SDS011;24401;53.034;-3.030;2023-12-14T04:05:48;1.27;;;1.17;;
38637;SDS011;24401;53.034;-3.030;2023-12-14T04:08:20;3.47;;;1.20;;
38637;SDS011;24401;53.034;-3.030;2023-12-14T04:10:50;2.35;;;1.73;;
38637;SDS011;24401;53.034;-3.030;2023-12-14T04:13:21;1.37;;;1.00;;
38637;SDS011;24401;53.034;-3.030;2023-12-14T04:15:51;1.83;;;1.10;;
38637;SDS011;24401;53.034;-3.030;2023-12-14T04:18:21;2.30;;;1.20;;
38637;SDS011;24401;53.034;-3.030;2023-12-14T04:20:51;1.43;;;1.00;;
38637;SDS011;24401;53.034;-3.030;2023-12-14T04:23:22;3.77;;;1.43;;
38637;SDS011;24401;53.034;-3.030;2023-12-14T04:25:52;1.10;;;0.70;;
38637;SDS011;24401;53.034;-3.030;2023-12-14T04:28:22;1.13;;;1.00;;
38637;SDS011;24401;53.034;-3.030;2023-12-14T04:30:52;0.65;;;0.65;;
38637;SDS011;24401;53.034;-3.030;2023-12-14T04:33:22;1.80;;;1.00;;
38637;SDS011;24401;53.034;-3.030;2023-12-14T04:35:53;1.33;;;0.83;;
38637;SDS011;24401;53.034;-3.030;2023-12-14T04:38:23;1.77;;;1.20;;
38637;SDS011;24401;53.034;-3.030;2023-12-14T04:40:53;1.00;;;0.90;;
38637;SDS011;24401;53.034;-3.030;2023-12-14T04:43:23;2.90;;;1.10;;
38637;SDS011;24401;53.034;-3.030;2023-12-14T04:45:53;2.13;;;1.00;;
38637;SDS011;24401;53.034;-3.030;2023-12-14T04:48:24;3.03;;;0.80;;
38637;SDS011;24401;53.034;-3.030;2023-12-14T04:50:54;2.57;;;1.00;;
38637;SDS011;24401;53.034;-3.030;2023-12-14T04:53:24;4.47;;;0.87;;
38637;SDS011;24401;53.034;-3.030;2023-12-14T04:55:54;1.90;;;1.20;;
38637;SDS011;24401;53.034;-3.030;2023-12-14T04:58:25;3.03;;;0.83;;
38637;SDS011;24401;53.034;-3.030;2023-12-14T05:00:55;1.27;;;0.97;;
38637;SDS011;24401;53.034;-3.030;2023-12-14T05:03:25;2.43;;;1.10;;
38637;SDS011;24401;53.034;-3.030;2023-12-14T05:05:55;1.50;;;0.67;;
38637;SDS011;24401;53.034;-3.030;2023-12-14T05:08:26;2.77;;;0.70;;
38637;SDS011;24401;53.034;-3.030;2023-12-14T05:10:58;2.25;;;0.90;;
38637;SDS011;24401;53.034;-3.030;2023-12-14T05:13:29;1.73;;;0.90;;
38637;SDS011;24401;53.034;-3.030;2023-12-14T05:15:59;1.13;;;0.80;;
38637;SDS011;24401;53.034;-3.030;2023-12-14T05:18:30;2.60;;;0.65;;
38637;SDS011;24401;53.034;-3.030;2023-12-14T05:21:01;1.67;;;1.00;;
38637;SDS011;24401;53.034;-3.030;2023-12-14T05:23:31;1.40;;;0.83;;
38637;SDS011;24401;53.034;-3.030;2023-12-14T05:26:01;2.10;;;0.87;;
38637;SDS011;24401;53.034;-3.030;2023-12-14T05:28:31;1.73;;;0.97;;
38637;SDS011;24401;53.034;-3.030;2023-12-14T05:31:01;1.27;;;0.83;;
38637;SDS011;24401;53.034;-3.030;2023-12-14T05:33:36;6.47;;;0.90;;
38637;SDS011;24401;53.034;-3.030;2023-12-14T05:36:06;1.95;;;0.88;;
38637;SDS011;24401;53.034;-3.030;2023-12-14T05:38:40;1.98;;;0.80;;
38637;SDS011;24401;53.034;-3.030;2023-12-14T05:41:11;3.87;;;0.77;;
38637;SDS011;24401;53.034;-3.030;2023-12-14T05:43:41;1.60;;;0.50;;
38637;SDS011;24401;53.034;-3.030;2023-12-14T05:46:19;2.37;;;0.90;;
38637;SDS011;24401;53.034;-3.030;2023-12-14T05:48:50;0.60;;;0.60;;
38637;SDS011;24401;53.034;-3.030;2023-12-14T05:51:27;0.57;;;0.50;;
38637;SDS011;24401;53.034;-3.030;2023-12-14T05:53:58;1.58;;;1.08;;
38637;SDS011;24401;53.034;-3.030;2023-12-14T05:56:28;0.50;;;0.50;;
38637;SDS011;24401;53.034;-3.030;2023-12-14T05:58:59;2.22;;;0.65;;
38637;SDS011;24401;53.034;-3.030;2023-12-14T06:01:29;2.23;;;0.80;;
38637;SDS011;24401;53.034;-3.030;2023-12-14T06:03:59;3.87;;;0.70;;
38637;SDS011;24401;53.034;-3.030;2023-12-14T06:06:29;0.77;;;0.60;;
38637;SDS011;24401;53.034;-3.030;2023-12-14T06:09:00;1.63;;;0.90;;
38637;SDS011;24401;53.034;-3.030;2023-12-14T06:11:30;0.67;;;0.67;;
38637;SDS011;24401;53.034;-3.030;2023-12-14T06:14:00;1.30;;;0.97;;
38637;SDS011;24401;53.034;-3.030;2023-12-14T06:16:30;3.40;;;1.00;;
38637;SDS011;24401;53.034;-3.030;2023-12-14T06:19:01;2.65;;;0.90;;
38637;SDS011;24401;53.034;-3.030;2023-12-14T06:21:31;1.00;;;0.90;;
38637;SDS011;24401;53.034;-3.030;2023-12-14T06:24:01;3.93;;;1.20;;
38637;SDS011;24401;53.034;-3.030;2023-12-14T06:26:31;1.83;;;1.00;;
38637;SDS011;24401;53.034;-3.030;2023-12-14T06:29:02;3.10;;;1.00;;
38637;SDS011;24401;53.034;-3.030;2023-12-14T06:31:32;3.03;;;1.20;;
38637;SDS011;24401;53.034;-3.030;2023-12-14T06:34:02;1.17;;;1.00;;
38637;SDS011;24401;53.034;-3.030;2023-12-14T06:36:34;1.30;;;0.90;;
38637;SDS011;24401;53.034;-3.030;2023-12-14T06:39:04;1.17;;;1.07;;
38637;SDS011;24401;53.034;-3.030;2023-12-14T06:41:34;3.20;;;0.97;;
38637;SDS011;24401;53.034;-3.030;2023-12-14T06:44:05;0.77;;;0.77;;
38637;SDS011;24401;53.034;-3.030;2023-12-14T06:46:35;1.20;;;1.00;;
38637;SDS011;24401;53.034;-3.030;2023-12-14T06:49:06;4.03;;;0.87;;
38637;SDS011;24401;53.034;-3.030;2023-12-14T06:51:36;3.80;;;0.83;;
38637;SDS011;24401;53.034;-3.030;2023-12-14T06:54:06;5.00;;;1.53;;
38637;SDS011;24401;53.034;-3.030;2023-12-14T06:56:37;0.80;;;0.70;;
38637;SDS011;24401;53.034;-3.030;2023-12-14T06:59:07;1.00;;;0.90;;
38637;SDS011;24401;53.034;-3.030;2023-12-14T07:01:37;1.63;;;0.70;;
38637;SDS011;24401;53.034;-3.030;2023-12-14T07:04:08;1.97;;;1.20;;
38637;SDS011;24401;53.034;-3.030;2023-12-14T07:06:38;4.63;;;1.30;;
38637;SDS011;24401;53.034;-3.030;2023-12-14T07:09:08;3.87;;;0.97;;
38637;SDS011;24401;53.034;-3.030;2023-12-14T07:11:38;2.00;;;1.10;;
38637;SDS011;24401;53.034;-3.030;2023-12-14T07:14:09;9.80;;;1.00;;
38637;SDS011;24401;53.034;-3.030;2023-12-14T07:16:39;0.80;;;0.80;;
38637;SDS011;24401;53.034;-3.030;2023-12-14T07:19:09;1.73;;;0.70;;
38637;SDS011;24401;53.034;-3.030;2023-12-14T07:21:41;6.72;;;0.88;;
38637;SDS011;24401;53.034;-3.030;2023-12-14T07:24:11;1.20;;;0.90;;
38637;SDS011;24401;53.034;-3.030;2023-12-14T07:26:41;1.80;;;1.03;;
38637;SDS011;24401;53.034;-3.030;2023-12-14T07:29:11;1.47;;;1.00;;
38637;SDS011;24401;53.034;-3.030;2023-12-14T07:31:42;2.30;;;0.87;;
38637;SDS011;24401;53.034;-3.030;2023-12-14T07:34:12;1.33;;;0.77;;
38637;SDS011;24401;53.034;-3.030;2023-12-14T07:36:42;1.13;;;1.03;;
38637;SDS011;24401;53.034;-3.030;2023-12-14T07:39:12;2.13;;;0.67;;
38637;SDS011;24401;53.034;-3.030;2023-12-14T07:41:42;0.97;;;0.60;;
38637;SDS011;24401;53.034;-3.030;2023-12-14T07:44:13;1.27;;;0.90;;
38637;SDS011;24401;53.034;-3.030;2023-12-14T07:46:43;0.87;;;0.87;;
38637;SDS011;24401;53.034;-3.030;2023-12-14T07:49:13;1.23;;;0.93;;
38637;SDS011;24401;53.034;-3.030;2023-12-14T07:51:43;0.63;;;0.63;;
38637;SDS011;24401;53.034;-3.030;2023-12-14T07:54:14;1.03;;;0.80;;
38637;SDS011;24401;53.034;-3.030;2023-12-14T07:56:44;1.33;;;1.00;;
38637;SDS011;24401;53.034;-3.030;2023-12-14T07:59:14;2.47;;;1.20;;
38637;SDS011;24401;53.034;-3.030;2023-12-14T08:01:44;1.20;;;1.00;;
38637;SDS011;24401;53.034;-3.030;2023-12-14T08:04:15;4.13;;;1.10;;
38637;SDS011;24401;53.034;-3.030;2023-12-14T08:06:45;1.57;;;1.07;;
38637;SDS011;24401;53.034;-3.030;2023-12-14T08:09:15;4.57;;;0.80;;
38637;SDS011;24401;53.034;-3.030;2023-12-14T08:11:46;6.03;;;1.00;;
38637;SDS011;24401;53.034;-3.030;2023-12-14T08:14:17;1.03;;;0.80;;
38637;SDS011;24401;53.034;-3.030;2023-12-14T08:16:47;8.07;;;5.97;;
38637;SDS011;24401;53.034;-3.030;2023-12-14T08:19:17;6.57;;;6.13;;
38637;SDS011;24401;53.034;-3.030;2023-12-14T08:21:47;1.13;;;1.13;;
38637;SDS011;24401;53.034;-3.030;2023-12-14T08:24:18;4.60;;;0.50;;
38637;SDS011;24401;53.034;-3.030;2023-12-14T08:26:48;0.33;;;0.30;;
38637;SDS011;24401;53.034;-3.030;2023-12-14T08:29:18;1.10;;;0.20;;
38637;SDS011;24401;53.034;-3.030;2023-12-14T08:31:48;6.37;;;0.20;;
38637;SDS011;24401;53.034;-3.030;2023-12-14T08:34:19;4.40;;;0.10;;
38637;SDS011;24401;53.034;-3.030;2023-12-14T08:36:49;0.10;;;0.10;;
38637;SDS011;24401;53.034;-3.030;2023-12-14T08:39:20;0.03;;;0.00;;
38637;SDS011;24401;53.034;-3.030;2023-12-14T08:41:50;0.00;;;0.00;;
38637;SDS011;24401;53.034;-3.030;2023-12-14T08:44:20;0.10;;;0.10;;
38637;SDS011;24401;53.034;-3.030;2023-12-14T08:46:51;2.57;;;0.10;;
38637;SDS011;24401;53.034;-3.030;2023-12-14T08:49:21;0.10;;;0.10;;
38637;SDS011;24401;53.034;-3.030;2023-12-14T08:54:23;0.00;;;0.00;;
38637;SDS011;24401;53.034;-3.030;2023-12-14T08:56:53;0.00;;;0.00;;
38637;SDS011;24401;53.034;-3.030;2023-12-14T08:59:23;0.93;;;0.10;;
38637;SDS011;24401;53.034;-3.030;2023-12-14T09:01:54;0.40;;;0.10;;
38637;SDS011;24401;53.034;-3.030;2023-12-14T09:04:24;0.10;;;0.10;;
38637;SDS011;24401;53.034;-3.030;2023-12-14T09:06:54;0.20;;;0.20;;
38637;SDS011;24401;53.034;-3.030;2023-12-14T09:09:24;0.83;;;0.13;;
38637;SDS011;24401;53.034;-3.030;2023-12-14T09:11:55;2.20;;;0.13;;
38637;SDS011;24401;53.034;-3.030;2023-12-14T09:14:25;0.10;;;0.10;;
38637;SDS011;24401;53.034;-3.030;2023-12-14T09:16:55;0.10;;;0.10;;
38637;SDS011;24401;53.034;-3.030;2023-12-14T09:19:25;0.10;;;0.10;;
38637;SDS011;24401;53.034;-3.030;2023-12-14T09:21:55;0.10;;;0.10;;
38637;SDS011;24401;53.034;-3.030;2023-12-14T09:24:26;0.40;;;0.33;;
38637;SDS011;24401;53.034;-3.030;2023-12-14T09:26:56;0.33;;;0.17;;
38637;SDS011;24401;53.034;-3.030;2023-12-14T09:29:26;0.53;;;0.20;;
38637;SDS011;24401;53.034;-3.030;2023-12-14T09:31:56;0.80;;;0.10;;
38637;SDS011;24401;53.034;-3.030;2023-12-14T09:34:27;0.97;;;0.40;;
38637;SDS011;24401;53.034;-3.030;2023-12-14T09:36:57;0.43;;;0.10;;
38637;SDS011;24401;53.034;-3.030;2023-12-14T09:39:27;0.10;;;0.10;;
38637;SDS011;24401;53.034;-3.030;2023-12-14T09:42:04;0.40;;;0.30;;
38637;SDS011;24401;53.034;-3.030;2023-12-14T09:44:35;0.30;;;0.30;;
38637;SDS011;24401;53.034;-3.030;2023-12-14T09:47:07;0.65;;;0.60;;
38637;SDS011;24401;53.034;-3.030;2023-12-14T09:49:37;1.73;;;1.10;;
38637;SDS011;24401;53.034;-3.030;2023-12-14T09:52:08;1.23;;;0.87;;
38637;SDS011;24401;53.034;-3.030;2023-12-14T09:54:39;0.83;;;0.60;;
38637;SDS011;24401;53.034;-3.030;2023-12-14T09:57:09;0.83;;;0.73;;
38637;SDS011;24401;53.034;-3.030;2023-12-14T09:59:39;1.13;;;0.80;;
38637;SDS011;24401;53.034;-3.030;2023-12-14T10:02:10;0.80;;;0.80;;
38637;SDS011;24401;53.034;-3.030;2023-12-14T10:04:42;1.40;;;1.00;;
38637;SDS011;24401;53.034;-3.030;2023-12-14T10:07:13;1.08;;;0.85;;
38637;SDS011;24401;53.034;-3.030;2023-12-14T10:09:43;1.43;;;0.60;;
38637;SDS011;24401;53.034;-3.030;2023-12-14T10:12:13;0.50;;;0.50;;
38637;SDS011;24401;53.034;-3.030;2023-12-14T10:14:43;0.50;;;0.50;;
38637;SDS011;24401;53.034;-3.030;2023-12-14T10:17:18;0.87;;;0.30;;
38637;SDS011;24401;53.034;-3.030;2023-12-14T10:19:48;0.32;;;0.30;;
38637;SDS011;24401;53.034;-3.030;2023-12-14T10:22:19;0.60;;;0.20;;
38637;SDS011;24401;53.034;-3.030;2023-12-14T10:24:49;0.63;;;0.43;;
38637;SDS011;24401;53.034;-3.030;2023-12-14T10:27:20;0.97;;;0.47;;
38637;SDS011;24401;53.034;-3.030;2023-12-14T10:29:50;1.97;;;0.50;;
38637;SDS011;24401;53.034;-3.030;2023-12-14T10:32:20;0.57;;;0.37;;
38637;SDS011;24401;53.034;-3.030;2023-12-14T10:34:51;1.00;;;0.33;;
38637;SDS011;24401;53.034;-3.030;2023-12-14T10:37:21;1.30;;;0.20;;
38637;SDS011;24401;53.034;-3.030;2023-12-14T10:39:53;0.40;;;0.30;;
38637;SDS011;24401;53.034;-3.030;2023-12-14T10:42:24;0.73;;;0.37;;
38637;SDS011;24401;53.034;-3.030;2023-12-14T10:44:55;1.50;;;0.40;;
38637;SDS011;24401;53.034;-3.030;2023-12-14T10:47:26;2.90;;;0.30;;
38637;SDS011;24401;53.034;-3.030;2023-12-14T10:49:56;2.83;;;1.10;;
38637;SDS011;24401;53.034;-3.030;2023-12-14T10:52:28;1.95;;;0.77;;
38637;SDS011;24401;53.034;-3.030;2023-12-14T10:55:01;5.30;;;1.85;;
38637;SDS011;24401;53.034;-3.030;2023-12-14T10:57:32;8.68;;;2.25;;
38637;SDS011;24401;53.034;-3.030;2023-12-14T11:00:03;8.88;;;1.63;;
38637;SDS011;24401;53.034;-3.030;2023-12-14T11:02:40;3.85;;;1.13;;
38637;SDS011;24401;53.034;-3.030;2023-12-14T11:05:13;6.22;;;0.68;;
38637;SDS011;24401;53.034;-3.030;2023-12-14T11:10:22;6.25;;;1.20;;
38637;SDS011;24401;53.034;-3.030;2023-12-14T11:12:57;4.70;;;0.70;;
38637;SDS011;24401;53.034;-3.030;2023-12-14T11:15:30;11.35;;;1.00;;
38637;SDS011;24401;53.034;-3.030;2023-12-14T11:25:59;6.90;;;1.35;;
38637;SDS011;24401;53.034;-3.030;2023-12-14T11:28:30;4.47;;;1.48;;
38637;SDS011;24401;53.034;-3.030;2023-12-14T11:31:01;11.98;;;1.52;;
38637;SDS011;24401;53.034;-3.030;2023-12-14T11:33:32;13.40;;;1.83;;
38637;SDS011;24401;53.034;-3.030;2023-12-14T11:36:03;13.60;;;1.77;;
38637;SDS011;24401;53.034;-3.030;2023-12-14T11:38:33;6.57;;;1.30;;
38637;SDS011;24401;53.034;-3.030;2023-12-14T11:41:04;11.03;;;1.60;;
38637;SDS011;24401;53.034;-3.030;2023-12-14T11:43:40;16.67;;;1.70;;
38637;SDS011;24401;53.034;-3.030;2023-12-14T11:46:11;7.43;;;1.92;;
38637;SDS011;24401;53.034;-3.030;2023-12-14T11:48:43;9.90;;;2.53;;
38637;SDS011;24401;53.034;-3.030;2023-12-14T11:51:14;13.25;;;2.08;;
38637;SDS011;24401;53.034;-3.030;2023-12-14T11:53:45;22.50;;;2.30;;
38637;SDS011;24401;53.034;-3.030;2023-12-14T11:56:19;18.55;;;2.85;;
38637;SDS011;24401;53.034;-3.030;2023-12-14T11:58:49;16.80;;;2.10;;
38637;SDS011;24401;53.034;-3.030;2023-12-14T12:01:20;19.03;;;2.67;;
38637;SDS011;24401;53.034;-3.030;2023-12-14T12:03:55;15.18;;;2.08;;
38637;SDS011;24401;53.034;-3.030;2023-12-14T12:06:26;35.73;;;3.83;;
38637;SDS011;24401;53.034;-3.030;2023-12-14T12:09:00;13.82;;;2.22;;
38637;SDS011;24401;53.034;-3.030;2023-12-14T12:11:30;7.83;;;2.23;;
38637;SDS011;24401;53.034;-3.030;2023-12-14T12:14:01;13.90;;;2.40;;
38637;SDS011;24401;53.034;-3.030;2023-12-14T12:16:31;14.53;;;2.67;;
38637;SDS011;24401;53.034;-3.030;2023-12-14T12:19:02;7.73;;;2.13;;
38637;SDS011;24401;53.034;-3.030;2023-12-14T12:21:32;19.43;;;2.70;;
38637;SDS011;24401;53.034;-3.030;2023-12-14T12:24:02;12.10;;;1.87;;
38637;SDS011;24401;53.034;-3.030;2023-12-14T12:26:32;21.47;;;3.17;;
38637;SDS011;24401;53.034;-3.030;2023-12-14T12:29:03;11.33;;;3.17;;
38637;SDS011;24401;53.034;-3.030;2023-12-14T12:31:36;13.82;;;2.00;;
38637;SDS011;24401;53.034;-3.030;2023-12-14T12:34:07;19.30;;;2.15;;
38637;SDS011;24401;53.034;-3.030;2023-12-14T12:36:37;15.67;;;2.47;;
38637;SDS011;24401;53.034;-3.030;2023-12-14T12:39:08;20.77;;;2.90;;
38637;SDS011;24401;53.034;-3.030;2023-12-14T12:41:38;12.37;;;1.93;;
38637;SDS011;24401;53.034;-3.030;2023-12-14T12:44:08;21.73;;;2.43;;
38637;SDS011;24401;53.034;-3.030;2023-12-14T12:46:39;13.83;;;2.60;;
38637;SDS011;24401;53.034;-3.030;2023-12-14T12:49:09;9.43;;;1.80;;
38637;SDS011;24401;53.034;-3.030;2023-12-14T12:51:39;20.40;;;3.10;;
38637;SDS011;24401;53.034;-3.030;2023-12-14T12:54:09;11.13;;;2.50;;
38637;SDS011;24401;53.034;-3.030;2023-12-14T12:56:40;14.57;;;2.70;;
38637;SDS011;24401;53.034;-3.030;2023-12-14T12:59:10;8.43;;;2.40;;
38637;SDS011;24401;53.034;-3.030;2023-12-14T13:01:40;12.93;;;2.43;;
38637;SDS011;24401;53.034;-3.030;2023-12-14T13:04:20;10.77;;;2.30;;
38637;SDS011;24401;53.034;-3.030;2023-12-14T13:06:50;21.00;;;2.63;;
38637;SDS011;24401;53.034;-3.030;2023-12-14T13:09:20;14.03;;;3.40;;
38637;SDS011;24401;53.034;-3.030;2023-12-14T13:11:51;7.73;;;2.73;;
38637;SDS011;24401;53.034;-3.030;2023-12-14T13:14:21;8.40;;;1.83;;
38637;SDS011;24401;53.034;-3.030;2023-12-14T13:16:51;12.70;;;2.13;;
38637;SDS011;24401;53.034;-3.030;2023-12-14T13:19:22;10.97;;;1.57;;
38637;SDS011;24401;53.034;-3.030;2023-12-14T13:21:53;7.57;;;1.63;;
38637;SDS011;24401;53.034;-3.030;2023-12-14T13:24:23;17.93;;;2.93;;
38637;SDS011;24401;53.034;-3.030;2023-12-14T13:26:54;19.37;;;3.20;;
38637;SDS011;24401;53.034;-3.030;2023-12-14T13:29:24;21.60;;;2.83;;
38637;SDS011;24401;53.034;-3.030;2023-12-14T13:31:54;13.60;;;2.80;;
38637;SDS011;24401;53.034;-3.030;2023-12-14T13:34:25;12.93;;;2.13;;
38637;SDS011;24401;53.034;-3.030;2023-12-14T13:36:56;21.20;;;3.33;;
38637;SDS011;24401;53.034;-3.030;2023-12-14T13:39:26;22.63;;;3.70;;
38637;SDS011;24401;53.034;-3.030;2023-12-14T13:41:57;9.67;;;2.60;;
38637;SDS011;24401;53.034;-3.030;2023-12-14T13:44:28;18.60;;;2.78;;
38637;SDS011;24401;53.034;-3.030;2023-12-14T13:46:58;19.27;;;3.33;;
38637;SDS011;24401;53.034;-3.030;2023-12-14T13:49:28;19.50;;;2.53;;
38637;SDS011;24401;53.034;-3.030;2023-12-14T13:51:59;20.17;;;2.80;;
38637;SDS011;24401;53.034;-3.030;2023-12-14T13:54:29;19.13;;;2.60;;
38637;SDS011;24401;53.034;-3.030;2023-12-14T13:56:59;12.23;;;2.67;;
38637;SDS011;24401;53.034;-3.030;2023-12-14T13:59:30;17.80;;;3.10;;
38637;SDS011;24401;53.034;-3.030;2023-12-14T14:02:00;17.33;;;2.43;;
38637;SDS011;24401;53.034;-3.030;2023-12-14T14:04:30;19.10;;;2.53;;
38637;SDS011;24401;53.034;-3.030;2023-12-14T14:07:01;17.33;;;3.10;;
38637;SDS011;24401;53.034;-3.030;2023-12-14T14:09:31;24.70;;;2.70;;
38637;SDS011;24401;53.034;-3.030;2023-12-14T14:12:03;15.15;;;2.35;;
38637;SDS011;24401;53.034;-3.030;2023-12-14T14:14:34;13.98;;;2.10;;
38637;SDS011;24401;53.034;-3.030;2023-12-14T14:17:04;20.27;;;2.80;;
38637;SDS011;24401;53.034;-3.030;2023-12-14T14:19:36;10.48;;;2.47;;
38637;SDS011;24401;53.034;-3.030;2023-12-14T14:22:06;25.23;;;2.33;;
38637;SDS011;24401;53.034;-3.030;2023-12-14T14:24:36;14.20;;;3.20;;
38637;SDS011;24401;53.034;-3.030;2023-12-14T14:27:07;14.40;;;3.40;;
38637;SDS011;24401;53.034;-3.030;2023-12-14T14:29:37;12.83;;;2.57;;
38637;SDS011;24401;53.034;-3.030;2023-12-14T14:32:07;19.03;;;3.10;;
38637;SDS011;24401;53.034;-3.030;2023-12-14T14:34:37;18.97;;;2.80;;
38637;SDS011;24401;53.034;-3.030;2023-12-14T14:37:08;17.93;;;2.87;;
38637;SDS011;24401;53.034;-3.030;2023-12-14T14:39:38;13.93;;;2.77;;
38637;SDS011;24401;53.034;-3.030;2023-12-14T14:42:09;15.45;;;3.00;;
38637;SDS011;24401;53.034;-3.030;2023-12-14T14:44:39;19.57;;;3.17;;
38637;SDS011;24401;53.034;-3.030;2023-12-14T14:47:10;15.27;;;2.00;;
38637;SDS011;24401;53.034;-3.030;2023-12-14T14:49:40;19.70;;;3.70;;
38637;SDS011;24401;53.034;-3.030;2023-12-14T14:52:11;12.13;;;2.53;;
38637;SDS011;24401;53.034;-3.030;2023-12-14T14:54:41;15.27;;;2.73;;
38637;SDS011;24401;53.034;-3.030;2023-12-14T14:57:11;16.07;;;2.93;;
38637;SDS011;24401;53.034;-3.030;2023-12-14T14:59:41;11.73;;;2.67;;
38637;SDS011;24401;53.034;-3.030;2023-12-14T15:02:12;13.13;;;2.70;;
38637;SDS011;24401;53.034;-3.030;2023-12-14T15:04:42;17.17;;;2.57;;
38637;SDS011;24401;53.034;-3.030;2023-12-14T15:07:12;24.67;;;4.10;;
38637;SDS011;24401;53.034;-3.030;2023-12-14T15:09:42;14.70;;;2.37;;
38637;SDS011;24401;53.034;-3.030;2023-12-14T15:12:12;13.60;;;2.07;;
38637;SDS011;24401;53.034;-3.030;2023-12-14T15:14:43;30.40;;;3.03;;
38637;SDS011;24401;53.034;-3.030;2023-12-14T15:17:13;14.37;;;2.40;;
38637;SDS011;24401;53.034;-3.030;2023-12-14T15:19:44;21.47;;;2.50;;
38637;SDS011;24401;53.034;-3.030;2023-12-14T15:22:16;15.25;;;3.13;;
38637;SDS011;24401;53.034;-3.030;2023-12-14T15:24:46;15.60;;;3.03;;
38637;SDS011;24401;53.034;-3.030;2023-12-14T15:27:18;16.15;;;2.45;;
38637;SDS011;24401;53.034;-3.030;2023-12-14T15:29:49;17.43;;;3.03;;
38637;SDS011;24401;53.034;-3.030;2023-12-14T15:32:20;8.80;;;2.27;;
38637;SDS011;24401;53.034;-3.030;2023-12-14T15:34:50;21.30;;;2.53;;
38637;SDS011;24401;53.034;-3.030;2023-12-14T15:37:20;13.80;;;2.47;;
38637;SDS011;24401;53.034;-3.030;2023-12-14T15:39:50;8.80;;;1.70;;
38637;SDS011;24401;53.034;-3.030;2023-12-14T15:42:22;9.68;;;1.70;;
38637;SDS011;24401;53.034;-3.030;2023-12-14T15:44:53;11.67;;;1.87;;
38637;SDS011;24401;53.034;-3.030;2023-12-14T15:47:23;14.67;;;2.30;;
38637;SDS011;24401;53.034;-3.030;2023-12-14T15:49:53;8.70;;;1.77;;
38637;SDS011;24401;53.034;-3.030;2023-12-14T15:52:23;6.43;;;1.70;;
38637;SDS011;24401;53.034;-3.030;2023-12-14T15:54:53;10.93;;;1.60;;
38637;SDS011;24401;53.034;-3.030;2023-12-14T15:57:24;6.60;;;1.50;;
38637;SDS011;24401;53.034;-3.030;2023-12-14T15:59:54;12.60;;;1.80;;
38637;SDS011;24401;53.034;-3.030;2023-12-14T16:02:24;7.50;;;1.77;;
38637;SDS011;24401;53.034;-3.030;2023-12-14T16:04:54;14.53;;;1.93;;
38637;SDS011;24401;53.034;-3.030;2023-12-14T16:07:24;6.03;;;1.23;;
38637;SDS011;24401;53.034;-3.030;2023-12-14T16:09:55;7.23;;;1.77;;
38637;SDS011;24401;53.034;-3.030;2023-12-14T16:12:25;5.50;;;2.30;;
38637;SDS011;24401;53.034;-3.030;2023-12-14T16:14:55;4.57;;;1.27;;
38637;SDS011;24401;53.034;-3.030;2023-12-14T16:17:26;7.05;;;1.65;;
38637;SDS011;24401;53.034;-3.030;2023-12-14T16:19:58;4.05;;;1.85;;
38637;SDS011;24401;53.034;-3.030;2023-12-14T16:22:28;10.47;;;1.73;;
38637;SDS011;24401;53.034;-3.030;2023-12-14T16:24:59;6.47;;;1.03;;
38637;SDS011;24401;53.034;-3.030;2023-12-14T16:27:29;11.10;;;1.60;;
38637;SDS011;24401;53.034;-3.030;2023-12-14T16:29:59;5.40;;;1.80;;
38637;SDS011;24401;53.034;-3.030;2023-12-14T16:32:29;6.43;;;1.63;;
38637;SDS011;24401;53.034;-3.030;2023-12-14T16:35:00;7.83;;;1.70;;
38637;SDS011;24401;53.034;-3.030;2023-12-14T16:37:31;6.73;;;2.00;;
38637;SDS011;24401;53.034;-3.030;2023-12-14T16:40:01;13.53;;;2.07;;
38637;SDS011;24401;53.034;-3.030;2023-12-14T16:42:31;7.93;;;1.90;;
38637;SDS011;24401;53.034;-3.030;2023-12-14T16:45:01;7.27;;;1.20;;
38637;SDS011;24401;53.034;-3.030;2023-12-14T16:47:31;6.67;;;1.47;;
38637;SDS011;24401;53.034;-3.030;2023-12-14T16:50:02;8.90;;;1.70;;
38637;SDS011;24401;53.034;-3.030;2023-12-14T16:52:33;5.00;;;1.90;;
38637;SDS011;24401;53.034;-3.030;2023-12-14T16:55:04;9.13;;;2.97;;
38637;SDS011;24401;53.034;-3.030;2023-12-14T16:57:34;6.47;;;1.70;;
38637;SDS011;24401;53.034;-3.030;2023-12-14T17:00:05;10.70;;;1.83;;